Terminal Aerodrome Forecast
Issued by NWS Cleveland, OH

Home | Current Version | Previous Version | Graphics & Text | Print | Product List | Glossary On
Versions: 1 2 3 4 5 6 7 8 9 10 11 12 13 14 15 16 17 18
000
FTUS41 KCLE 161100
TAFTOL
TAF
KTOL 161124Z 1612/1712 32004KT P6SM SCT025
      TEMPO 1612/1613 BKN025
     FM161400 34005KT P6SM SCT035
     FM161800 31006KT P6SM SCT045
     FM170200 26003KT P6SM SKC=

USA.gov is the U.S. government's official web portal to all federal, state and local government web resources and services.